createdAt,value
2018-12-04T00:00:24.690Z,2.80
2018-12-04T00:01:24.779Z,3.10
2018-12-04T00:02:24.876Z,2.50
2018-12-04T00:03:24.965Z,3.30
2018-12-04T00:04:25.060Z,3.10
2018-12-04T00:05:25.154Z,2.80
2018-12-04T00:06:25.256Z,2.80
2018-12-04T00:07:25.350Z,2.50
2018-12-04T00:08:25.443Z,2.80
2018-12-04T00:09:25.535Z,2.80
2018-12-04T00:10:25.629Z,3.10
2018-12-04T00:11:25.722Z,3.00
2018-12-04T00:12:25.816Z,2.80
2018-12-04T00:13:25.911Z,2.60
2018-12-04T00:14:26.002Z,3.10
2018-12-04T00:15:26.095Z,2.80
2018-12-04T00:16:26.188Z,3.10
2018-12-04T00:17:26.282Z,3.10
2018-12-04T00:18:26.376Z,2.50
2018-12-04T00:19:26.480Z,3.20
2018-12-04T00:20:26.574Z,2.80
2018-12-04T00:21:26.666Z,2.70
2018-12-04T00:22:26.758Z,2.80
2018-12-04T00:23:26.850Z,2.60
2018-12-04T00:24:26.947Z,2.80
2018-12-04T00:25:27.034Z,3.00
2018-12-04T00:26:27.130Z,2.40
2018-12-04T00:27:27.220Z,2.80
2018-12-04T00:28:27.313Z,3.00
2018-12-04T00:29:27.404Z,2.60
2018-12-04T00:30:27.498Z,2.70
2018-12-04T00:31:27.590Z,3.00
2018-12-04T00:32:27.698Z,2.70
2018-12-04T00:33:27.789Z,2.50
2018-12-04T00:34:27.882Z,2.80
2018-12-04T00:35:27.971Z,2.50
2018-12-04T00:36:28.067Z,2.80
2018-12-04T00:37:28.153Z,2.80
2018-12-04T00:38:28.248Z,2.90
2018-12-04T00:39:28.341Z,2.70
2018-12-04T00:40:28.437Z,2.60
2018-12-04T00:41:28.521Z,2.80
2018-12-04T00:42:28.613Z,2.70
2018-12-04T00:43:28.707Z,2.60
2018-12-04T00:44:28.798Z,2.60
2018-12-04T00:45:28.889Z,2.50
2018-12-04T00:46:28.994Z,2.60
2018-12-04T00:47:29.087Z,2.50
2018-12-04T00:48:29.178Z,2.60
2018-12-04T00:49:29.271Z,2.20
2018-12-04T00:50:29.364Z,2.90
2018-12-04T00:51:29.460Z,2.60
2018-12-04T00:52:29.550Z,2.70
2018-12-04T00:53:29.644Z,2.60
2018-12-04T00:54:29.735Z,2.30
2018-12-04T00:55:29.829Z,2.30
2018-12-04T00:56:29.925Z,2.50
2018-12-04T00:57:30.023Z,2.60
2018-12-04T00:58:30.106Z,2.70
2018-12-04T00:59:30.195Z,2.20
2018-12-04T01:00:30.286Z,2.20
2018-12-04T01:01:30.379Z,2.40
2018-12-04T01:02:30.472Z,2.80
2018-12-04T01:03:30.569Z,2.50
2018-12-04T01:04:30.655Z,2.20
2018-12-04T01:05:30.751Z,2.10
2018-12-04T01:06:30.846Z,2.60
2018-12-04T01:07:30.941Z,2.50
2018-12-04T01:08:31.038Z,2.50
2018-12-04T01:09:31.128Z,2.70
2018-12-04T01:10:31.214Z,2.20
2018-12-04T01:11:31.297Z,2.40
2018-12-04T01:12:31.387Z,2.70
2018-12-04T01:13:31.485Z,2.70
2018-12-04T01:14:31.574Z,2.20
2018-12-04T01:15:31.666Z,2.30
2018-12-04T01:16:31.761Z,2.40
2018-12-04T01:17:31.856Z,2.50
2018-12-04T01:18:31.953Z,2.70
2018-12-04T01:19:32.040Z,2.60
2018-12-04T01:20:32.140Z,2.20
2018-12-04T01:21:32.233Z,2.30
2018-12-04T01:22:32.329Z,2.30
2018-12-04T01:23:32.437Z,2.10
2018-12-04T01:24:32.513Z,2.20
2018-12-04T01:25:32.604Z,2.20
2018-12-04T01:26:32.695Z,2.00
2018-12-04T01:27:32.789Z,2.10
2018-12-04T01:28:32.889Z,2.10
2018-12-04T01:29:32.978Z,2.50
2018-12-04T01:30:33.069Z,2.00
2018-12-04T01:31:33.163Z,2.30
2018-12-04T01:32:33.255Z,2.30
2018-12-04T01:33:33.347Z,2.00
2018-12-04T01:34:33.447Z,2.10
2018-12-04T01:35:33.530Z,2.50
2018-12-04T01:36:33.623Z,2.80
2018-12-04T01:37:33.715Z,2.70
2018-12-04T01:38:33.813Z,2.40
2018-12-04T01:39:33.900Z,2.20
2018-12-04T01:40:33.994Z,2.30
2018-12-04T01:41:34.085Z,2.50
2018-12-04T01:42:34.177Z,2.30
2018-12-04T01:43:34.274Z,2.20
2018-12-04T01:44:34.364Z,2.40
2018-12-04T01:45:34.456Z,2.30
2018-12-04T01:46:34.548Z,2.50
2018-12-04T01:47:34.643Z,2.30
2018-12-04T01:48:34.740Z,2.40
2018-12-04T01:49:34.842Z,2.10
2018-12-04T01:50:34.928Z,2.30
2018-12-04T01:51:35.021Z,2.10
2018-12-04T01:52:35.113Z,2.10
2018-12-04T01:53:35.216Z,2.60
2018-12-04T01:54:35.301Z,2.20
2018-12-04T01:55:35.395Z,2.30
2018-12-04T01:56:35.488Z,2.30
2018-12-04T01:57:35.583Z,2.40
2018-12-04T01:58:35.675Z,2.20
2018-12-04T01:59:35.764Z,2.30
2018-12-04T02:00:35.860Z,2.20
2018-12-04T02:01:35.951Z,2.20
2018-12-04T02:02:36.059Z,2.50
2018-12-04T02:03:36.167Z,2.10
2018-12-04T02:04:36.262Z,2.30
2018-12-04T02:05:36.358Z,2.10
2018-12-04T02:06:36.456Z,2.40
2018-12-04T02:07:36.554Z,2.20
2018-12-04T02:08:36.644Z,2.40
2018-12-04T02:09:36.736Z,2.00
2018-12-04T02:10:36.828Z,2.10
2018-12-04T02:11:36.920Z,2.00
2018-12-04T02:12:37.015Z,2.20
2018-12-04T02:13:37.105Z,1.90
2018-12-04T02:14:37.198Z,2.20
2018-12-04T02:15:37.287Z,1.70
2018-12-04T02:16:37.381Z,2.00
2018-12-04T02:17:37.490Z,2.10
2018-12-04T02:18:37.564Z,1.80
2018-12-04T02:19:37.651Z,2.40
2018-12-04T02:20:37.737Z,2.30
2018-12-04T02:21:37.845Z,2.00
2018-12-04T02:22:37.943Z,1.90
2018-12-04T02:23:38.032Z,2.10
2018-12-04T02:24:38.116Z,2.00
2018-12-04T02:25:38.211Z,2.10
2018-12-04T02:26:38.299Z,2.30
2018-12-04T02:27:38.393Z,2.40
2018-12-04T02:28:38.500Z,2.10
2018-12-04T02:29:38.593Z,2.60
2018-12-04T02:30:38.685Z,1.80
2018-12-04T02:31:38.774Z,2.30
2018-12-04T02:32:38.865Z,1.90
2018-12-04T02:33:38.958Z,2.00
2018-12-04T02:34:39.046Z,2.40
2018-12-04T02:35:39.137Z,2.00
2018-12-04T02:36:39.227Z,2.30
2018-12-04T02:37:39.319Z,2.20
2018-12-04T02:38:39.411Z,2.10
2018-12-04T02:39:39.503Z,2.10
2018-12-04T02:40:39.595Z,2.30
2018-12-04T02:41:39.703Z,3.50
2018-12-04T02:42:39.779Z,2.40
2018-12-04T02:43:39.873Z,2.40
2018-12-04T02:44:39.970Z,2.20
2018-12-04T02:45:40.060Z,2.10
2018-12-04T02:46:40.153Z,2.10
2018-12-04T02:47:40.247Z,1.70
2018-12-04T02:48:40.338Z,2.30
2018-12-04T02:49:40.414Z,1.90
2018-12-04T02:50:40.517Z,2.10
2018-12-04T02:51:40.600Z,2.30
2018-12-04T02:52:40.693Z,2.40
2018-12-04T02:53:40.792Z,2.30
2018-12-04T02:54:40.884Z,2.40
2018-12-04T02:55:40.960Z,2.30
2018-12-04T02:56:41.073Z,2.30
2018-12-04T02:57:41.163Z,2.10
2018-12-04T02:58:41.238Z,2.00
2018-12-04T02:59:41.328Z,2.10
2018-12-04T03:00:41.426Z,1.90
2018-12-04T03:01:41.513Z,2.00
2018-12-04T03:02:41.606Z,2.00
2018-12-04T03:03:41.701Z,2.20
2018-12-04T03:04:41.794Z,1.90
2018-12-04T03:05:41.924Z,2.20
2018-12-04T03:06:41.965Z,1.90
2018-12-04T03:07:42.062Z,2.00
2018-12-04T03:08:42.153Z,1.80
2018-12-04T03:09:42.250Z,1.70
2018-12-04T03:10:42.341Z,1.60
2018-12-04T03:11:42.434Z,1.50
2018-12-04T03:12:42.524Z,1.60
2018-12-04T03:13:42.612Z,1.60
2018-12-04T03:14:42.702Z,1.50
2018-12-04T03:15:42.794Z,1.60
2018-12-04T03:16:42.891Z,1.70
2018-12-04T03:17:42.981Z,1.60
2018-12-04T03:18:43.070Z,1.80
2018-12-04T03:19:43.160Z,1.60
2018-12-04T03:20:43.252Z,1.70
2018-12-04T03:21:43.350Z,1.70
2018-12-04T03:22:43.442Z,1.50
2018-12-04T03:23:43.544Z,1.40
2018-12-04T03:24:43.630Z,1.20
2018-12-04T03:25:43.730Z,1.40
2018-12-04T03:26:43.821Z,1.30
2018-12-04T03:27:43.907Z,1.20
2018-12-04T03:28:43.997Z,1.20
2018-12-04T03:29:44.092Z,1.10
2018-12-04T03:30:44.204Z,1.20
2018-12-04T03:31:44.273Z,1.00
2018-12-04T03:32:44.370Z,1.10
2018-12-04T03:33:44.459Z,1.10
2018-12-04T03:34:44.548Z,1.00
2018-12-04T03:35:44.644Z,1.20
2018-12-04T03:36:44.738Z,1.10
2018-12-04T03:37:44.826Z,1.00
2018-12-04T03:38:44.916Z,0.90
2018-12-04T03:39:45.007Z,1.10
2018-12-04T03:40:45.098Z,1.00
2018-12-04T03:41:45.193Z,1.20
2018-12-04T03:42:45.293Z,1.10
2018-12-04T03:43:45.376Z,1.00
2018-12-04T03:44:45.464Z,1.10
2018-12-04T03:45:46.106Z,1.20
2018-12-04T03:46:45.675Z,1.10
2018-12-04T03:47:45.768Z,1.30
2018-12-04T03:48:45.858Z,1.10
2018-12-04T03:49:45.948Z,1.30
2018-12-04T03:50:46.036Z,1.20
2018-12-04T03:51:46.139Z,1.10
2018-12-04T03:52:46.227Z,1.50
2018-12-04T03:53:46.318Z,1.10
2018-12-04T03:54:46.417Z,1.30
2018-12-04T03:55:46.501Z,1.40
2018-12-04T03:56:46.592Z,1.20
2018-12-04T03:57:46.695Z,1.00
2018-12-04T03:58:46.778Z,1.30
2018-12-04T03:59:46.866Z,1.20
2018-12-04T04:00:46.958Z,1.10
2018-12-04T04:01:47.045Z,1.70
2018-12-04T04:02:47.137Z,1.40
2018-12-04T04:03:47.229Z,1.20
2018-12-04T04:04:47.319Z,1.00
2018-12-04T04:05:47.410Z,1.10
2018-12-04T04:06:47.500Z,1.10
2018-12-04T04:07:47.592Z,1.60
2018-12-04T04:08:47.684Z,1.30
2018-12-04T04:09:47.773Z,1.20
2018-12-04T04:10:47.873Z,1.20
2018-12-04T04:11:47.965Z,1.50
2018-12-04T04:12:48.057Z,1.30
2018-12-04T04:13:48.144Z,1.30
2018-12-04T04:14:48.233Z,1.50
2018-12-04T04:15:48.334Z,1.20
2018-12-04T04:16:48.420Z,1.40
2018-12-04T04:17:48.518Z,1.40
2018-12-04T04:18:48.602Z,1.40
2018-12-04T04:19:48.688Z,1.60
2018-12-04T04:20:48.779Z,1.40
2018-12-04T04:21:48.872Z,1.50
2018-12-04T04:22:48.963Z,1.60
2018-12-04T04:23:49.058Z,1.50
2018-12-04T04:24:49.150Z,1.70
2018-12-04T04:25:49.241Z,1.80
2018-12-04T04:26:49.332Z,1.50
2018-12-04T04:27:49.421Z,1.80
2018-12-04T04:28:49.512Z,2.50
2018-12-04T04:29:49.603Z,2.70
2018-12-04T04:30:49.696Z,2.20
2018-12-04T04:31:49.783Z,2.20
2018-12-04T04:32:49.888Z,1.90
2018-12-04T04:33:49.981Z,1.60
2018-12-04T04:34:50.067Z,1.80
2018-12-04T04:35:50.151Z,2.20
2018-12-04T04:36:50.236Z,2.50
2018-12-04T04:37:50.326Z,2.40
2018-12-04T04:38:50.425Z,2.10
2018-12-04T04:39:50.514Z,2.00
2018-12-04T04:40:50.597Z,1.80
2018-12-04T04:41:50.688Z,2.00
2018-12-04T04:42:50.768Z,1.80
2018-12-04T04:43:50.866Z,1.70
2018-12-04T04:44:50.957Z,1.90
2018-12-04T04:45:51.046Z,1.80
2018-12-04T04:46:51.139Z,1.90
2018-12-04T04:47:51.224Z,1.70
2018-12-04T04:48:51.323Z,1.40
2018-12-04T04:49:51.412Z,1.70
2018-12-04T04:50:51.501Z,1.60
2018-12-04T04:51:51.591Z,1.70
2018-12-04T04:52:51.680Z,1.60
2018-12-04T04:53:51.772Z,1.80
2018-12-04T04:54:51.869Z,2.20
2018-12-04T04:55:51.958Z,1.60
2018-12-04T04:56:52.062Z,1.80
2018-12-04T04:57:52.155Z,2.00
2018-12-04T04:58:52.228Z,1.90
2018-12-04T04:59:52.320Z,1.90
2018-12-04T05:00:52.409Z,1.90
2018-12-04T05:01:52.502Z,2.00
2018-12-04T05:02:52.594Z,1.70
2018-12-04T05:03:52.683Z,1.80
2018-12-04T05:04:52.773Z,1.70
2018-12-04T05:05:52.875Z,2.00
2018-12-04T05:06:52.959Z,1.90
2018-12-04T05:07:53.066Z,1.60
2018-12-04T05:08:53.157Z,1.80
2018-12-04T05:09:53.250Z,2.10
2018-12-04T05:10:53.340Z,1.70
2018-12-04T05:11:53.427Z,1.70
2018-12-04T05:12:53.519Z,1.90
2018-12-04T05:13:53.601Z,1.90
2018-12-04T05:14:53.691Z,1.70
2018-12-04T05:15:53.787Z,1.60
2018-12-04T05:16:53.878Z,1.80
2018-12-04T05:17:53.971Z,2.30
2018-12-04T05:18:54.059Z,1.90
2018-12-04T05:19:54.145Z,2.10
2018-12-04T05:20:54.234Z,2.00
2018-12-04T05:21:54.327Z,2.20
2018-12-04T05:22:54.416Z,2.00
2018-12-04T05:23:54.503Z,2.50
2018-12-04T05:24:54.596Z,2.10
2018-12-04T05:25:54.689Z,2.30
2018-12-04T05:26:54.801Z,2.60
2018-12-04T05:27:54.893Z,2.60
2018-12-04T05:28:54.983Z,2.20
2018-12-04T05:29:55.074Z,2.40
2018-12-04T05:30:55.169Z,2.40
2018-12-04T05:31:55.255Z,2.10
2018-12-04T05:32:55.348Z,2.40
2018-12-04T05:33:55.435Z,2.00
2018-12-04T05:34:55.522Z,2.00
2018-12-04T05:35:55.619Z,2.00
2018-12-04T05:36:55.706Z,1.60
2018-12-04T05:37:55.796Z,2.30
2018-12-04T05:38:55.886Z,2.00
2018-12-04T05:39:55.981Z,1.90
2018-12-04T05:40:56.070Z,1.90
2018-12-04T05:41:56.158Z,1.90
2018-12-04T05:42:56.249Z,1.90
2018-12-04T05:43:56.337Z,2.20
2018-12-04T05:44:56.449Z,2.10
2018-12-04T05:45:56.527Z,2.00
2018-12-04T05:46:56.619Z,2.40
2018-12-04T05:47:56.709Z,2.10
2018-12-04T05:48:56.801Z,2.30
2018-12-04T05:49:56.891Z,2.30
2018-12-04T05:50:56.990Z,2.00
2018-12-04T05:51:57.077Z,1.90
2018-12-04T05:52:57.169Z,2.20
2018-12-04T05:53:57.259Z,1.90
2018-12-04T05:54:57.349Z,2.20
2018-12-04T05:55:57.439Z,2.10
2018-12-04T05:56:57.532Z,1.90
2018-12-04T05:57:57.623Z,3.90
2018-12-04T05:58:57.714Z,3.50
2018-12-04T05:59:57.806Z,3.60
2018-12-04T06:00:57.896Z,3.60
2018-12-04T06:01:57.987Z,2.80
2018-12-04T06:02:58.086Z,2.50
2018-12-04T06:03:58.174Z,2.20
2018-12-04T06:04:58.268Z,2.00
2018-12-04T06:05:58.360Z,2.00
2018-12-04T06:06:58.453Z,2.10
2018-12-04T06:07:58.546Z,2.20
2018-12-04T06:08:58.638Z,2.50
2018-12-04T06:09:58.730Z,2.40
2018-12-04T06:10:58.823Z,3.60
2018-12-04T06:11:58.899Z,2.80
2018-12-04T06:12:58.989Z,3.40
2018-12-04T06:13:59.081Z,2.90
2018-12-04T06:14:59.168Z,3.20
2018-12-04T06:15:59.256Z,2.80
2018-12-04T06:16:59.351Z,2.80
2018-12-04T06:17:59.443Z,2.60
2018-12-04T06:18:59.535Z,2.10
2018-12-04T06:19:59.627Z,3.10
2018-12-04T06:20:59.718Z,2.10
2018-12-04T06:21:59.807Z,2.30
2018-12-04T06:22:59.900Z,2.50
2018-12-04T06:24:00.000Z,2.60
2018-12-04T06:25:00.083Z,2.50
2018-12-04T06:26:00.175Z,2.70
2018-12-04T06:27:00.263Z,3.10
2018-12-04T06:28:00.354Z,3.40
2018-12-04T06:29:00.449Z,3.00
2018-12-04T06:30:00.538Z,3.10
2018-12-04T06:31:00.630Z,3.00
2018-12-04T06:32:00.718Z,3.50
2018-12-04T06:33:00.808Z,3.40
2018-12-04T06:34:00.901Z,3.90
2018-12-04T06:35:01.013Z,3.50
2018-12-04T06:36:01.081Z,3.20
2018-12-04T06:37:01.175Z,3.40
2018-12-04T06:38:01.265Z,3.10
2018-12-04T06:39:01.357Z,2.70
2018-12-04T06:40:01.452Z,3.40
2018-12-04T06:41:01.537Z,2.90
2018-12-04T06:42:01.631Z,2.80
2018-12-04T06:43:01.725Z,2.90
2018-12-04T06:44:01.815Z,2.80
2018-12-04T06:45:01.905Z,2.40
2018-12-04T06:46:01.997Z,2.30
2018-12-04T06:47:02.084Z,2.70
2018-12-04T06:48:02.178Z,2.70
2018-12-04T06:49:02.268Z,3.00
2018-12-04T06:50:02.356Z,3.10
2018-12-04T06:51:02.450Z,2.90
2018-12-04T06:52:02.540Z,3.10
2018-12-04T06:53:02.633Z,3.40
2018-12-04T06:54:02.719Z,3.50
2018-12-04T06:55:02.810Z,3.40
2018-12-04T06:56:02.904Z,3.20
2018-12-04T06:57:02.994Z,3.20
2018-12-04T06:58:03.088Z,3.00
2018-12-04T06:59:03.175Z,3.10
2018-12-04T07:00:03.269Z,3.00
2018-12-04T07:01:03.362Z,2.90
2018-12-04T07:02:03.450Z,3.00
2018-12-04T07:03:03.547Z,2.90
2018-12-04T07:04:03.632Z,3.50
2018-12-04T07:05:03.724Z,3.20
2018-12-04T07:06:03.813Z,3.10
2018-12-04T07:07:03.905Z,3.20
2018-12-04T07:08:03.997Z,3.20
2018-12-04T07:09:04.090Z,2.90
2018-12-04T07:10:04.183Z,3.00
2018-12-04T07:11:04.276Z,2.90
2018-12-04T07:12:04.366Z,2.70
2018-12-04T07:13:04.456Z,2.50
2018-12-04T07:14:04.550Z,2.60
2018-12-04T07:15:04.640Z,2.80
2018-12-04T07:16:04.730Z,2.40
2018-12-04T07:17:04.823Z,3.20
2018-12-04T07:18:04.916Z,3.10
2018-12-04T07:19:05.007Z,3.10
2018-12-04T07:20:05.099Z,3.30
2018-12-04T07:21:05.191Z,3.30
2018-12-04T07:22:05.284Z,3.30
2018-12-04T07:23:05.373Z,3.20
2018-12-04T07:24:05.457Z,2.90
2018-12-04T07:25:05.545Z,2.90
2018-12-04T07:26:05.635Z,2.90
2018-12-04T07:27:05.725Z,2.50
2018-12-04T07:28:05.816Z,2.70
2018-12-04T07:29:05.904Z,2.70
2018-12-04T07:30:05.985Z,2.80
2018-12-04T07:31:06.089Z,2.60
2018-12-04T07:32:06.189Z,2.60
2018-12-04T07:33:06.269Z,3.50
2018-12-04T07:34:06.361Z,3.50
2018-12-04T07:35:06.452Z,3.30
2018-12-04T07:36:06.552Z,3.20
2018-12-04T07:37:06.643Z,2.90
2018-12-04T07:38:06.735Z,2.90
2018-12-04T07:39:06.826Z,2.90
2018-12-04T07:40:06.922Z,3.00
2018-12-04T07:41:07.009Z,3.00
2018-12-04T07:42:07.101Z,2.90
2018-12-04T07:43:07.185Z,2.80
2018-12-04T07:44:07.273Z,3.40
2018-12-04T07:45:07.362Z,3.30
2018-12-04T07:46:07.454Z,2.90
2018-12-04T07:47:07.548Z,2.80
2018-12-04T07:48:07.637Z,3.30
2018-12-04T07:49:07.724Z,3.30
2018-12-04T07:50:07.817Z,3.80
2018-12-04T07:51:07.909Z,4.30
2018-12-04T07:52:08.013Z,3.70
2018-12-04T07:53:08.085Z,3.40
2018-12-04T07:54:08.177Z,3.70
2018-12-04T07:55:08.287Z,4.20
2018-12-04T07:56:08.382Z,3.70
2018-12-04T07:57:08.470Z,3.40
2018-12-04T07:58:08.562Z,4.30
2018-12-04T07:59:08.648Z,3.90
2018-12-04T08:00:08.749Z,4.10
2018-12-04T08:01:08.837Z,3.90
2018-12-04T08:02:08.925Z,3.80
2018-12-04T08:03:09.031Z,2.80
2018-12-04T08:04:09.110Z,3.20
2018-12-04T08:05:09.200Z,3.00
2018-12-04T08:06:09.294Z,2.50
2018-12-04T08:07:09.381Z,2.70
2018-12-04T08:08:09.477Z,3.40
2018-12-04T08:09:09.569Z,2.60
2018-12-04T08:10:09.658Z,2.60
2018-12-04T08:11:09.750Z,2.60
2018-12-04T08:12:09.842Z,2.80
2018-12-04T08:13:09.931Z,3.00
2018-12-04T08:14:10.025Z,3.50
2018-12-04T08:15:10.112Z,3.10
2018-12-04T08:16:10.206Z,2.30
2018-12-04T08:17:10.293Z,2.90
2018-12-04T08:18:10.384Z,3.00
2018-12-04T08:19:10.474Z,2.60
2018-12-04T08:20:10.564Z,2.40
2018-12-04T08:21:10.656Z,2.60
2018-12-04T08:22:10.743Z,2.20
2018-12-04T08:23:10.831Z,2.60
2018-12-04T08:24:10.926Z,2.60
2018-12-04T08:25:11.016Z,2.50
2018-12-04T08:26:11.107Z,2.50
2018-12-04T08:27:11.199Z,2.30
2018-12-04T08:28:11.287Z,2.20
2018-12-04T08:29:11.373Z,2.80
2018-12-04T08:30:11.464Z,2.30
2018-12-04T08:31:11.557Z,2.40
2018-12-04T08:32:11.647Z,2.40
2018-12-04T08:33:11.754Z,2.70
2018-12-04T08:34:11.843Z,2.50
2018-12-04T08:35:11.932Z,2.40
2018-12-04T08:36:12.024Z,2.10
2018-12-04T08:37:12.119Z,2.40
2018-12-04T08:38:12.210Z,2.30
2018-12-04T08:39:13.207Z,2.30
2018-12-04T08:40:12.393Z,2.70
2018-12-04T08:41:12.482Z,2.40
2018-12-04T08:42:12.576Z,2.40
2018-12-04T08:43:12.667Z,1.70
2018-12-04T08:44:12.758Z,2.50
2018-12-04T08:45:12.849Z,2.10
2018-12-04T08:46:12.942Z,2.40
2018-12-04T08:47:13.029Z,2.40
2018-12-04T08:48:13.123Z,2.40
2018-12-04T08:49:13.214Z,2.30
2018-12-04T08:50:13.304Z,2.70
2018-12-04T08:51:13.394Z,2.30
2018-12-04T08:52:13.486Z,2.20
2018-12-04T08:53:13.583Z,2.40
2018-12-04T08:54:13.673Z,2.30
2018-12-04T08:55:13.763Z,2.10
2018-12-04T08:56:13.862Z,2.30
2018-12-04T08:57:13.948Z,3.10
2018-12-04T08:58:14.038Z,2.60
2018-12-04T08:59:14.135Z,3.10
2018-12-04T09:00:14.224Z,2.80
2018-12-04T09:01:14.316Z,3.00
2018-12-04T09:02:14.405Z,2.80
2018-12-04T09:03:14.500Z,2.40
2018-12-04T09:04:14.588Z,2.40
2018-12-04T09:05:14.728Z,2.00
2018-12-04T09:06:14.775Z,2.30
2018-12-04T09:07:14.864Z,2.80
2018-12-04T09:08:14.955Z,2.70
2018-12-04T09:09:15.047Z,2.20
2018-12-04T09:10:15.138Z,2.70
2018-12-04T09:11:15.232Z,2.90
2018-12-04T09:12:15.321Z,2.60
2018-12-04T09:13:15.417Z,2.40
2018-12-04T09:14:15.505Z,2.20
2018-12-04T09:15:15.593Z,2.70
2018-12-04T09:16:15.688Z,2.60
2018-12-04T09:17:15.777Z,2.40
2018-12-04T09:18:15.860Z,2.20
2018-12-04T09:19:15.975Z,2.10
2018-12-04T09:20:16.067Z,3.20
2018-12-04T09:21:16.151Z,2.60
2018-12-04T09:22:16.235Z,2.30
2018-12-04T09:23:16.330Z,2.30
2018-12-04T09:24:16.478Z,2.60
2018-12-04T09:25:16.505Z,2.40
2018-12-04T09:26:16.614Z,2.70
2018-12-04T09:27:16.694Z,2.40
2018-12-04T09:28:16.786Z,2.50
2018-12-04T09:29:16.927Z,2.70
2018-12-04T09:30:16.953Z,2.20
2018-12-04T09:31:17.050Z,2.30
2018-12-04T09:32:17.134Z,2.50
2018-12-04T09:33:17.232Z,2.40
2018-12-04T09:34:17.318Z,2.80
2018-12-04T09:35:17.410Z,2.60
2018-12-04T09:36:17.517Z,2.40
2018-12-04T09:37:17.611Z,2.60
2018-12-04T09:38:17.709Z,2.20
2018-12-04T09:39:17.801Z,2.20
2018-12-04T09:40:17.891Z,2.70
2018-12-04T09:41:17.982Z,2.30
2018-12-04T09:42:18.077Z,2.20
2018-12-04T09:43:18.164Z,2.90
2018-12-04T09:44:18.262Z,2.70
2018-12-04T09:45:18.349Z,2.50
2018-12-04T09:46:18.446Z,2.50
2018-12-04T09:47:18.534Z,2.70
2018-12-04T09:48:18.624Z,2.70
2018-12-04T09:49:18.721Z,2.50
2018-12-04T09:50:18.810Z,2.20
2018-12-04T09:51:18.906Z,2.50
2018-12-04T09:52:20.273Z,2.50
2018-12-04T09:53:19.089Z,2.30
2018-12-04T09:54:19.178Z,2.30
2018-12-04T09:55:19.264Z,2.30
2018-12-04T09:56:19.357Z,2.30
2018-12-04T09:57:19.449Z,2.70
2018-12-04T09:58:19.543Z,2.20
2018-12-04T09:59:19.634Z,2.40
2018-12-04T10:00:19.727Z,2.30
2018-12-04T10:01:19.817Z,1.90
2018-12-04T10:02:19.905Z,2.00
2018-12-04T10:03:19.998Z,2.10
2018-12-04T10:04:20.090Z,2.00
2018-12-04T10:05:20.178Z,2.90
2018-12-04T10:06:20.275Z,2.50
2018-12-04T10:07:20.360Z,2.50
2018-12-04T10:08:20.450Z,2.40
2018-12-04T10:09:20.537Z,2.30
2018-12-04T10:10:20.626Z,2.30
2018-12-04T10:11:20.719Z,2.20
2018-12-04T10:12:20.810Z,2.40
2018-12-04T10:13:20.901Z,2.30
2018-12-04T10:14:20.992Z,2.30
2018-12-04T10:15:21.084Z,2.40
2018-12-04T10:16:21.173Z,2.40
2018-12-04T10:17:21.266Z,2.60
2018-12-04T10:18:21.362Z,2.80
2018-12-04T10:19:21.447Z,2.30
2018-12-04T10:20:21.537Z,2.60
2018-12-04T10:21:21.630Z,2.30
2018-12-04T10:22:21.722Z,2.10
2018-12-04T10:23:21.812Z,2.30
2018-12-04T10:24:21.903Z,2.40
2018-12-04T10:25:21.994Z,2.40
2018-12-04T10:26:22.086Z,2.60
2018-12-04T10:27:22.180Z,2.40
2018-12-04T10:28:22.276Z,2.70
2018-12-04T10:29:22.366Z,2.10
2018-12-04T10:30:22.458Z,2.50
2018-12-04T10:31:22.551Z,2.30
2018-12-04T10:32:22.641Z,2.30
2018-12-04T10:33:22.731Z,2.20
2018-12-04T10:34:22.824Z,2.20
2018-12-04T10:35:22.913Z,2.70
2018-12-04T10:36:23.006Z,1.80
2018-12-04T10:37:23.099Z,2.00
2018-12-04T10:38:23.193Z,2.30
2018-12-04T10:39:23.285Z,2.80
2018-12-04T10:40:23.375Z,2.60
2018-12-04T10:41:23.473Z,2.40
2018-12-04T10:42:23.556Z,2.50
2018-12-04T10:43:23.650Z,2.40
2018-12-04T10:44:23.743Z,2.40
2018-12-04T10:45:23.833Z,2.50
2018-12-04T10:46:23.926Z,2.40
2018-12-04T10:47:24.009Z,2.30
2018-12-04T10:48:24.108Z,2.10
2018-12-04T10:49:24.201Z,2.30
2018-12-04T10:50:24.293Z,2.50
2018-12-04T10:51:24.388Z,2.10
2018-12-04T10:52:24.475Z,2.20
2018-12-04T10:53:24.580Z,2.60
2018-12-04T10:54:24.675Z,2.70
2018-12-04T10:55:24.769Z,2.60
2018-12-04T10:56:24.905Z,2.30
2018-12-04T10:57:24.951Z,2.30
2018-12-04T10:58:25.041Z,2.30
2018-12-04T10:59:25.138Z,2.30
2018-12-04T11:00:25.221Z,2.00
2018-12-04T11:01:25.317Z,3.00
2018-12-04T11:02:25.406Z,2.50
2018-12-04T11:03:25.499Z,2.70
2018-12-04T11:04:25.593Z,2.80
2018-12-04T11:05:25.676Z,3.30
2018-12-04T11:06:25.771Z,2.40
2018-12-04T11:07:25.864Z,3.00
2018-12-04T11:08:25.961Z,3.00
2018-12-04T11:09:26.045Z,2.90
2018-12-04T11:10:26.135Z,2.70
2018-12-04T11:11:26.230Z,2.30
2018-12-04T11:12:26.326Z,2.50
2018-12-04T11:13:26.413Z,2.60
2018-12-04T11:14:26.507Z,2.60
2018-12-04T11:15:26.626Z,2.50
2018-12-04T11:16:26.691Z,2.70
2018-12-04T11:17:26.771Z,2.40
2018-12-04T11:18:26.858Z,2.80
2018-12-04T11:19:26.948Z,3.00
2018-12-04T11:20:27.036Z,2.40
2018-12-04T11:21:27.129Z,2.90
2018-12-04T11:22:27.224Z,3.10
2018-12-04T11:23:27.313Z,2.60
2018-12-04T11:24:27.404Z,2.90
2018-12-04T11:25:27.496Z,2.80
2018-12-04T11:26:27.590Z,2.50
2018-12-04T11:27:27.682Z,2.50
2018-12-04T11:28:27.774Z,2.60
2018-12-04T11:29:27.864Z,2.60
2018-12-04T11:30:27.955Z,2.30
2018-12-04T11:31:28.049Z,2.50
2018-12-04T11:32:28.139Z,2.60
2018-12-04T11:33:28.232Z,2.60
2018-12-04T11:34:28.324Z,2.60
2018-12-04T11:35:28.417Z,2.90
2018-12-04T11:36:28.509Z,2.60
2018-12-04T11:37:28.604Z,2.60
2018-12-04T11:38:28.696Z,2.30
2018-12-04T11:39:28.787Z,2.50
2018-12-04T11:40:28.877Z,2.20
2018-12-04T11:41:29.017Z,2.20
2018-12-04T11:42:29.068Z,2.00
2018-12-04T11:43:29.159Z,2.40
2018-12-04T11:44:29.243Z,2.50
2018-12-04T11:45:29.349Z,2.70
2018-12-04T11:46:29.439Z,1.80
2018-12-04T11:47:29.531Z,2.20
2018-12-04T11:48:29.629Z,2.00
2018-12-04T11:49:29.716Z,2.20
2018-12-04T11:50:29.811Z,2.70
2018-12-04T11:51:29.900Z,2.20
2018-12-04T11:52:29.992Z,2.80
2018-12-04T11:53:30.083Z,2.70
2018-12-04T11:54:30.178Z,2.60
2018-12-04T11:55:30.269Z,2.40
2018-12-04T11:56:30.363Z,2.40
2018-12-04T11:57:30.452Z,2.30
2018-12-04T11:58:30.546Z,2.00
2018-12-04T11:59:30.636Z,2.20
2018-12-04T12:00:30.729Z,2.90
2018-12-04T12:01:30.820Z,2.00
2018-12-04T12:02:30.913Z,2.20
2018-12-04T12:03:31.007Z,2.10
2018-12-04T12:04:31.098Z,1.90
2018-12-04T12:05:31.191Z,1.90
2018-12-04T12:06:31.283Z,2.10
2018-12-04T12:07:31.375Z,2.00
2018-12-04T12:08:31.471Z,1.80
2018-12-04T12:09:31.560Z,2.00
2018-12-04T12:10:31.653Z,2.00
2018-12-04T12:11:31.745Z,2.40
2018-12-04T12:12:31.844Z,2.20
2018-12-04T12:13:31.929Z,2.40
2018-12-04T12:14:32.030Z,2.20
2018-12-04T12:15:32.124Z,2.30
2018-12-04T12:16:32.234Z,2.20
2018-12-04T12:17:32.324Z,1.70
2018-12-04T12:18:32.416Z,2.10
2018-12-04T12:19:32.507Z,2.40
2018-12-04T12:20:32.604Z,2.10
2018-12-04T12:21:32.696Z,2.10
2018-12-04T12:22:32.794Z,2.40
2018-12-04T12:23:32.880Z,2.20
2018-12-04T12:24:32.972Z,1.90
2018-12-04T12:25:33.065Z,1.90
2018-12-04T12:26:33.157Z,2.10
2018-12-04T12:27:33.250Z,1.80
2018-12-04T12:28:33.342Z,2.20
2018-12-04T12:29:33.456Z,2.20
2018-12-04T12:30:33.546Z,2.00
2018-12-04T12:31:33.640Z,2.10
2018-12-04T12:32:33.731Z,1.90
2018-12-04T12:33:33.822Z,2.20
2018-12-04T12:34:33.916Z,2.60
2018-12-04T12:35:34.008Z,2.20
2018-12-04T12:36:34.094Z,2.10
2018-12-04T12:37:34.182Z,2.00
2018-12-04T12:38:34.277Z,2.00
2018-12-04T12:39:34.369Z,2.00
2018-12-04T12:40:34.461Z,2.00
2018-12-04T12:41:34.556Z,2.30
2018-12-04T12:42:34.649Z,2.50
2018-12-04T12:43:34.742Z,2.40
2018-12-04T12:44:34.838Z,2.30
2018-12-04T12:45:34.929Z,2.10
2018-12-04T12:46:35.022Z,2.30
2018-12-04T12:47:35.112Z,1.80
2018-12-04T12:48:35.206Z,2.10
2018-12-04T12:49:35.301Z,2.20
2018-12-04T12:50:35.399Z,1.90
2018-12-04T12:51:35.487Z,2.10
2018-12-04T12:52:35.585Z,1.90
2018-12-04T12:53:35.670Z,2.00
2018-12-04T12:54:35.765Z,1.90
2018-12-04T12:55:35.857Z,2.30
2018-12-04T12:56:35.948Z,2.50
2018-12-04T12:57:36.042Z,2.20
2018-12-04T12:58:36.135Z,2.50
2018-12-04T12:59:36.225Z,2.20
2018-12-04T13:00:36.323Z,2.10
2018-12-04T13:01:36.412Z,2.10
2018-12-04T13:02:36.501Z,2.20
2018-12-04T13:03:36.598Z,2.10
2018-12-04T13:04:36.690Z,2.10
2018-12-04T13:05:37.345Z,2.10
2018-12-04T13:06:36.875Z,2.30
2018-12-04T13:07:36.963Z,2.40
2018-12-04T13:08:37.053Z,2.20
2018-12-04T13:09:37.146Z,1.90
2018-12-04T13:10:37.244Z,2.10
2018-12-04T13:11:37.333Z,2.10
2018-12-04T13:12:37.425Z,2.20
2018-12-04T13:13:37.516Z,2.10
2018-12-04T13:14:37.628Z,2.40
2018-12-04T13:15:37.734Z,2.40
2018-12-04T13:16:37.826Z,2.30
2018-12-04T13:17:37.917Z,2.40
2018-12-04T13:18:38.011Z,2.40
2018-12-04T13:19:38.109Z,2.30